Time;durP1;ratioP1;P1;durP2;ratioP2;P2;SDS_P1;SDS_P2;PMS_P1;PMS_P2;Temp;Humidity;BMP_temperature;BMP_pressure;BME280_temperature;BME280_humidity;BME280_pressure;Samples;Min_cycle;Max_cycle;Signal;HPM_P1;HPM_P2
2022/03/28 00:00:31;;;;;;;13.23;9.37;;;6.60;58.70;;;;;;6253305;23;20220;-91
2022/03/28 00:02:58;;;;;;;15.47;8.83;;;6.60;58.90;;;;;;6257196;23;20248;-91
2022/03/28 00:05:46;;;;;;;16.03;9.57;;;6.50;58.90;;;;;;6209041;23;20505;-91
2022/03/28 00:08:13;;;;;;;13.63;9.20;;;6.40;59.70;;;;;;6255454;23;20197;-91
2022/03/28 00:10:42;;;;;;;13.20;9.07;;;6.30;62.00;;;;;;6257637;23;20188;-91
2022/03/28 00:13:10;;;;;;;13.50;9.20;;;6.30;62.50;;;;;;6251456;22;20177;-92
2022/03/28 00:15:37;;;;;;;23.63;9.27;;;6.30;61.50;;;;;;6287430;22;20639;-92
2022/03/28 00:18:07;;;;;;;16.33;9.30;;;6.20;62.40;;;;;;6286245;22;20214;-91
2022/03/28 00:23:33;;;;;;;15.83;9.60;;;6.20;64.60;;;;;;6229667;23;20227;-92
2022/03/28 00:26:22;;;;;;;14.77;9.20;;;6.10;64.40;;;;;;6205038;23;20229;-91
2022/03/28 00:28:49;;;;;;;16.70;8.97;;;6.00;65.00;;;;;;6249041;23;20212;-91
2022/03/28 00:31:16;;;;;;;19.03;9.67;;;5.90;66.00;;;;;;6255950;23;20271;-91
2022/03/28 00:33:44;;;;;;;14.93;9.20;;;6.10;65.00;;;;;;6227773;23;20208;-91
2022/03/28 00:36:11;;;;;;;15.17;9.07;;;6.10;64.50;;;;;;6230554;23;20173;-92
2022/03/28 00:38:38;;;;;;;15.50;9.30;;;6.00;64.40;;;;;;6228929;23;20225;-91
2022/03/28 00:46:36;;;;;;;19.23;8.87;;;6.10;63.40;;;;;;6210621;23;20169;-92
2022/03/28 00:49:03;;;;;;;15.83;8.77;;;6.10;62.90;;;;;;6222882;23;20211;-91
2022/03/28 00:51:30;;;;;;;14.93;8.90;;;6.10;63.30;;;;;;6223227;23;20183;-91
2022/03/28 00:53:58;;;;;;;12.33;8.30;;;6.00;63.00;;;;;;6241967;23;20662;-91
2022/03/28 00:56:25;;;;;;;12.00;8.43;;;6.00;63.40;;;;;;6249822;23;20272;-92
2022/03/28 00:58:54;;;;;;;11.50;8.63;;;6.00;63.80;;;;;;6258722;22;20222;-91
2022/03/28 01:01:21;;;;;;;14.67;8.83;;;5.90;63.90;;;;;;6310596;22;20250;-91
2022/03/28 01:03:49;;;;;;;13.00;9.30;;;5.80;64.30;;;;;;6307267;22;20210;-89
2022/03/28 01:06:37;;;;;;;13.30;8.17;;;5.80;65.00;;;;;;6288013;22;20172;-90
2022/03/28 01:09:06;;;;;;;14.33;8.80;;;5.60;66.10;;;;;;6284295;22;20207;-89
2022/03/28 01:11:34;;;;;;;14.27;8.93;;;5.60;67.40;;;;;;6314061;22;20232;-89
2022/03/28 01:19:33;;;;;;;11.87;8.53;;;5.40;67.20;;;;;;6312246;22;20214;-89
2022/03/28 01:22:01;;;;;;;14.00;9.07;;;5.40;69.40;;;;;;6288000;22;20176;-92
2022/03/28 01:27:10;;;;;;;14.67;9.07;;;5.40;68.60;;;;;;6299192;22;20168;-89
2022/03/28 01:29:38;;;;;;;13.97;8.63;;;5.30;71.50;;;;;;6317313;22;20231;-89
2022/03/28 01:32:26;;;;;;;12.87;8.27;;;5.40;70.10;;;;;;6262820;22;20198;-90
2022/03/28 01:34:53;;;;;;;12.23;8.57;;;5.40;70.00;;;;;;6310503;22;20195;-90
2022/03/28 01:40:04;;;;;;;15.93;9.10;;;5.40;67.50;;;;;;6304041;22;20203;-90
2022/03/28 01:42:39;;;;;;;11.60;8.40;;;5.50;67.90;;;;;;6308828;22;20190;-90
2022/03/28 01:45:06;;;;;;;11.93;8.23;;;5.40;68.80;;;;;;6307186;22;20286;-90
2022/03/28 01:47:34;;;;;;;13.30;9.00;;;5.30;70.00;;;;;;6308760;22;20198;-90
2022/03/28 01:50:01;;;;;;;12.03;8.43;;;5.40;70.20;;;;;;6280660;22;20690;-89
2022/03/28 01:52:29;;;;;;;12.73;8.67;;;5.30;70.00;;;;;;6307793;22;20175;-90
2022/03/28 01:54:56;;;;;;;13.73;9.20;;;5.10;69.90;;;;;;6306934;22;20204;-90
2022/03/28 01:57:23;;;;;;;14.47;9.07;;;5.00;69.80;;;;;;6308997;22;20183;-90
2022/03/28 01:59:51;;;;;;;12.87;8.63;;;5.00;71.80;;;;;;6259423;22;20236;-90
2022/03/28 02:02:18;;;;;;;14.23;9.33;;;5.10;71.20;;;;;;6274323;22;20183;-91
2022/03/28 02:04:45;;;;;;;13.83;8.60;;;5.10;69.90;;;;;;6264278;22;20224;-90
2022/03/28 02:07:12;;;;;;;15.83;8.43;;;5.10;71.40;;;;;;6278079;22;20256;-89
2022/03/28 02:12:21;;;;;;;15.27;8.73;;;5.20;70.00;;;;;;6305814;22;20164;-90
2022/03/28 02:14:49;;;;;;;12.57;8.97;;;5.10;69.80;;;;;;6280029;22;20748;-90
2022/03/28 02:17:20;;;;;;;15.40;9.17;;;5.10;69.80;;;;;;6307743;22;20160;-90
2022/03/28 02:19:47;;;;;;;13.43;9.17;;;5.00;71.30;;;;;;6280034;22;20196;-89
2022/03/28 02:22:15;;;;;;;12.00;9.13;;;4.90;73.20;;;;;;6250082;22;20252;-90
2022/03/28 02:27:24;;;;;;;14.43;9.00;;;4.90;73.70;;;;;;6274475;22;20189;-89
2022/03/28 02:29:51;;;;;;;18.10;9.33;;;4.90;74.90;;;;;;6249763;22;20555;-90
2022/03/28 02:32:18;;;;;;;11.07;8.67;;;4.90;74.90;;;;;;6278264;22;20253;-90
2022/03/28 02:34:45;;;;;;;14.23;9.10;;;4.80;75.20;;;;;;6248531;22;20197;-90
2022/03/28 02:37:13;;;;;;;13.00;8.73;;;4.70;75.50;;;;;;6275879;22;20173;-90
2022/03/28 02:39:40;;;;;;;14.60;9.17;;;4.70;75.30;;;;;;6275922;22;20292;-88
2022/03/28 02:44:51;;;;;;;12.93;9.17;;;4.60;76.60;;;;;;6274605;22;20192;-88
2022/03/28 02:47:19;;;;;;;13.67;9.03;;;4.60;76.60;;;;;;6250086;22;20168;-88
2022/03/28 02:49:46;;;;;;;16.30;9.07;;;4.50;77.00;;;;;;6248980;22;20243;-89
2022/03/28 02:52:13;;;;;;;11.50;8.73;;;4.60;77.40;;;;;;6274106;22;20499;-88
2022/03/28 02:54:40;;;;;;;13.77;9.27;;;4.70;76.30;;;;;;6268320;22;20511;-88
2022/03/28 02:59:50;;;;;;;13.20;9.20;;;4.80;77.00;;;;;;6285259;22;20196;-88
2022/03/28 03:02:17;;;;;;;12.10;9.10;;;4.90;76.40;;;;;;6250715;22;20227;-88
2022/03/28 03:04:44;;;;;;;12.80;9.17;;;4.80;76.30;;;;;;6277671;22;20211;-90
2022/03/28 03:07:15;;;;;;;14.23;9.17;;;4.80;75.80;;;;;;6252313;22;20236;-90
2022/03/28 03:10:02;;;;;;;12.23;8.87;;;4.80;75.80;;;;;;6223542;22;20515;-89
2022/03/28 03:15:11;;;;;;;14.27;9.13;;;4.70;76.40;;;;;;6262498;22;20169;-89
2022/03/28 03:17:40;;;;;;;15.30;9.57;;;4.60;77.00;;;;;;6281592;22;20178;-90
2022/03/28 03:20:08;;;;;;;13.67;8.90;;;4.60;77.00;;;;;;6280900;22;20228;-89
2022/03/28 03:22:35;;;;;;;12.87;8.80;;;4.60;77.40;;;;;;6284620;22;20204;-91
2022/03/28 03:25:03;;;;;;;13.50;8.90;;;4.60;77.00;;;;;;6255359;22;20214;-91
2022/03/28 03:27:31;;;;;;;15.37;10.43;;;4.60;77.00;;;;;;6227992;22;20655;-91
2022/03/28 03:30:01;;;;;;;16.17;9.53;;;4.70;77.00;;;;;;6284363;22;20216;-90
2022/03/28 03:32:28;;;;;;;12.80;9.63;;;4.70;77.00;;;;;;6287926;22;20254;-91
2022/03/28 03:34:55;;;;;;;15.60;9.37;;;4.60;77.10;;;;;;6286317;22;20260;-90
2022/03/28 03:37:22;;;;;;;13.53;9.43;;;4.60;77.20;;;;;;6314592;22;20180;-91
2022/03/28 03:39:49;;;;;;;17.97;9.07;;;4.60;77.40;;;;;;6293281;22;20283;-91
2022/03/28 03:42:17;;;;;;;15.00;9.37;;;4.50;77.90;;;;;;6284338;22;20172;-91
2022/03/28 03:44:46;;;;;;;15.40;9.33;;;4.50;78.10;;;;;;6255189;22;20208;-91
2022/03/28 03:47:13;;;;;;;12.20;9.17;;;4.40;78.70;;;;;;6251810;22;20247;-91
2022/03/28 03:49:40;;;;;;;15.43;9.17;;;4.50;78.70;;;;;;6282531;22;20200;-91
2022/03/28 03:52:10;;;;;;;13.57;9.13;;;4.40;78.70;;;;;;6288997;22;20172;-91
2022/03/28 03:54:55;;;;;;;17.27;9.23;;;4.40;78.80;;;;;;6263523;22;20207;-91
2022/03/28 04:00:06;;;;;;;15.63;9.37;;;4.40;79.40;;;;;;6305290;22;20241;-92
2022/03/28 04:05:14;;;;;;;17.47;9.53;;;4.30;80.10;;;;;;6254719;22;20176;-91
2022/03/28 04:07:41;;;;;;;15.90;9.87;;;4.30;80.10;;;;;;6288736;22;20193;-91
2022/03/28 04:10:10;;;;;;;13.97;9.57;;;4.30;80.10;;;;;;6304536;22;20191;-91
2022/03/28 04:12:58;;;;;;;14.90;8.93;;;4.30;80.10;;;;;;6285069;22;20190;-91
2022/03/28 04:18:28;;;;;;;13.50;9.70;;;4.20;80.60;;;;;;6272742;22;20228;-91
2022/03/28 04:20:56;;;;;;;13.23;9.40;;;4.20;80.40;;;;;;6206241;22;20177;-91
2022/03/28 04:23:26;;;;;;;14.73;9.97;;;4.20;80.70;;;;;;6255459;22;20233;-91
2022/03/28 04:25:54;;;;;;;16.60;10.83;;;4.20;81.20;;;;;;6283046;22;20251;-91
2022/03/28 04:33:48;;;;;;;18.20;11.67;;;3.90;83.60;;;;;;6285008;22;20292;-91
2022/03/28 04:36:16;;;;;;;15.63;12.37;;;4.00;83.70;;;;;;6261570;22;20224;-91
2022/03/28 04:38:43;;;;;;;18.57;10.93;;;4.10;83.60;;;;;;6225318;22;20206;-92
2022/03/28 04:41:10;;;;;;;19.67;11.63;;;4.10;83.20;;;;;;6289647;22;20227;-91
2022/03/28 04:43:37;;;;;;;14.93;10.80;;;4.10;83.50;;;;;;6228224;22;20208;-91
2022/03/28 04:48:48;;;;;;;20.67;11.37;;;3.80;84.80;;;;;;6254004;22;20200;-90
2022/03/28 04:51:16;;;;;;;15.93;11.40;;;3.90;85.90;;;;;;6255822;22;20496;-90
2022/03/28 04:53:43;;;;;;;18.00;10.50;;;3.90;85.10;;;;;;6256990;22;20643;-91
2022/03/28 04:59:12;;;;;;;16.10;9.97;;;3.90;84.80;;;;;;6257456;22;20216;-91
2022/03/28 05:01:41;;;;;;;21.30;11.67;;;3.90;85.20;;;;;;6273948;22;20176;-88
2022/03/28 05:04:12;;;;;;;14.17;9.77;;;3.80;85.70;;;;;;6258063;22;20655;-89
2022/03/28 05:09:20;;;;;;;19.80;10.60;;;4.00;85.40;;;;;;6236755;22;20235;-92
2022/03/28 05:11:47;;;;;;;16.63;10.20;;;4.00;84.80;;;;;;6286711;22;20252;-92
2022/03/28 05:14:22;;;;;;;14.63;10.03;;;4.10;84.40;;;;;;6297863;22;20215;-92
2022/03/28 05:17:09;;;;;;;16.20;10.47;;;4.20;83.90;;;;;;6286698;22;20179;-90
2022/03/28 05:19:36;;;;;;;15.13;9.67;;;4.20;83.60;;;;;;6297662;22;20231;-88
2022/03/28 05:22:03;;;;;;;18.10;10.07;;;4.20;83.30;;;;;;6241081;22;20175;-91
2022/03/28 05:24:31;;;;;;;16.27;9.60;;;4.20;82.90;;;;;;6281549;22;20272;-91
2022/03/28 05:26:59;;;;;;;16.73;10.10;;;4.30;82.60;;;;;;6235857;22;20176;-91
2022/03/28 05:29:26;;;;;;;18.57;11.80;;;4.20;82.50;;;;;;6285207;22;20200;-92
2022/03/28 05:32:16;;;;;;;19.43;12.40;;;4.20;82.30;;;;;;6203120;22;20191;-92
2022/03/28 05:38:28;;;;;;;22.20;10.37;;;4.40;81.90;;;;;;6284694;22;20140;-90
2022/03/28 05:40:56;;;;;;;21.23;10.07;;;4.50;81.40;;;;;;6283916;22;20173;-92
2022/03/28 05:43:32;;;;;;;15.30;9.37;;;4.50;81.30;;;;;;6285061;22;20173;-88
2022/03/28 05:46:22;;;;;;;17.13;9.10;;;4.50;80.70;;;;;;6273997;22;20177;-90
2022/03/28 05:51:32;;;;;;;17.40;10.10;;;4.60;80.50;;;;;;6259380;22;20165;-87
2022/03/28 05:53:59;;;;;;;15.10;9.10;;;4.70;80.40;;;;;;6258816;22;20224;-89
2022/03/28 05:56:26;;;;;;;19.97;11.10;;;4.70;80.00;;;;;;6285275;22;20275;-86
2022/03/28 05:58:53;;;;;;;18.30;10.03;;;4.80;80.00;;;;;;6254070;23;20223;-86
2022/03/28 06:01:35;;;;;;;21.53;9.70;;;4.90;79.40;;;;;;6253028;23;20204;-86
2022/03/28 06:04:05;;;;;;;15.77;9.93;;;5.00;79.10;;;;;;6249861;23;20200;-86
2022/03/28 06:06:32;;;;;;;17.73;10.10;;;5.10;78.40;;;;;;6253136;23;20177;-86
2022/03/28 06:09:00;;;;;;;14.73;9.43;;;5.20;78.50;;;;;;6252934;22;20197;-86
2022/03/28 06:11:27;;;;;;;19.17;10.43;;;5.30;78.30;;;;;;6254072;23;20173;-86
2022/03/28 06:13:57;;;;;;;19.10;10.63;;;5.30;78.00;;;;;;6253456;23;20209;-85
2022/03/28 06:16:24;;;;;;;26.37;10.70;;;5.30;79.00;;;;;;6254408;23;20264;-88
2022/03/28 06:18:51;;;;;;;15.80;10.03;;;5.40;79.30;;;;;;6253955;22;20220;-87
2022/03/28 06:21:21;;;;;;;16.50;9.30;;;5.50;78.40;;;;;;6255863;23;20570;-86
2022/03/28 06:23:48;;;;;;;16.83;10.10;;;5.70;78.10;;;;;;6253575;23;20256;-86
2022/03/28 06:26:17;;;;;;;27.60;10.90;;;5.90;77.00;;;;;;6257034;23;20226;-87
2022/03/28 06:28:44;;;;;;;22.30;10.33;;;6.00;76.70;;;;;;6257500;22;20251;-88
2022/03/28 06:31:11;;;;;;;20.63;9.90;;;6.20;76.60;;;;;;6257015;23;20203;-86
2022/03/28 06:33:40;;;;;;;22.00;10.33;;;6.90;75.50;;;;;;6257504;22;20535;-87
2022/03/28 06:36:35;;;;;;;16.73;10.10;;;8.10;63.60;;;;;;6261179;22;20169;-87
2022/03/28 08:49:04;;;;;;;16.73;12.70;;;18.50;17.20;;;;;;6153593;23;20207;-88
2022/03/28 08:51:42;;;;;;;24.27;12.93;;;19.00;15.90;;;;;;6174496;23;20277;-87
2022/03/28 09:10:46;;;;;;;29.90;20.75;;;20.40;11.60;;;;;;6000496;23;20206;-89
2022/03/28 09:13:16;;;;;;;21.52;13.77;;;20.90;12.40;;;;;;6226107;22;20176;-87
2022/03/28 09:15:52;;;;;;;21.35;15.02;;;21.50;11.90;;;;;;6281655;22;20255;-87
2022/03/28 09:18:23;;;;;;;20.63;13.98;;;22.50;10.10;;;;;;6248210;22;20551;-85
2022/03/28 09:20:52;;;;;;;24.40;13.88;;;23.00;10.40;;;;;;6276264;22;20502;-84
2022/03/28 09:23:38;;;;;;;17.80;14.10;;;23.10;9.90;;;;;;6274889;22;20173;-85
2022/03/28 09:26:12;;;;;;;21.00;14.68;;;23.80;9.40;;;;;;6282748;22;20156;-81
2022/03/28 09:28:50;;;;;;;19.83;15.05;;;23.60;8.10;;;;;;6282687;22;20207;-82
2022/03/28 09:31:23;;;;;;;22.00;14.05;;;23.90;7.50;;;;;;6291910;22;20196;-84
2022/03/28 09:34:14;;;;;;;19.15;14.15;;;24.60;7.30;;;;;;6297552;22;20203;-84
2022/03/28 09:36:44;;;;;;;19.10;14.93;;;26.60;5.30;;;;;;6250448;22;20221;-84
2022/03/28 09:39:16;;;;;;;18.65;14.98;;;27.50;4.40;;;;;;6277281;22;20251;-84
2022/03/28 09:41:46;;;;;;;21.42;14.93;;;28.20;3.80;;;;;;6277671;22;20168;-84
2022/03/28 09:44:13;;;;;;;18.02;14.43;;;29.00;3.20;;;;;;6277463;22;20203;-84
2022/03/28 09:46:41;;;;;;;19.55;14.98;;;29.40;1.60;;;;;;6277821;22;20494;-84
2022/03/28 09:49:09;;;;;;;21.23;15.45;;;29.60;2.30;;;;;;6277535;22;20192;-83
2022/03/28 09:51:37;;;;;;;20.25;15.80;;;28.90;2.30;;;;;;6279186;22;20222;-84
2022/03/28 09:54:24;;;;;;;20.95;15.57;;;27.80;3.40;;;;;;6277833;22;20192;-84
2022/03/28 09:57:09;;;;;;;21.13;15.70;;;27.50;4.40;;;;;;6277545;22;20160;-85
2022/03/28 09:59:40;;;;;;;18.13;15.38;;;27.10;4.30;;;;;;6277600;22;20282;-83
2022/03/28 10:02:21;;;;;;;20.85;16.15;;;27.90;2.70;;;;;;6279058;22;20191;-84
2022/03/28 10:04:50;;;;;;;17.27;15.43;;;28.50;2.10;;;;;;6252256;22;20203;-85
2022/03/28 10:07:17;;;;;;;17.65;15.80;;;29.30;2.30;;;;;;6278234;22;20173;-84
2022/03/28 10:09:44;;;;;;;19.30;15.35;;;29.90;1.10;;;;;;6278266;22;20196;-85
2022/03/28 10:12:24;;;;;;;20.13;16.58;;;30.60;1.80;;;;;;6297818;22;20186;-85
2022/03/28 10:14:57;;;;;;;20.55;15.93;;;28.70;2.40;;;;;;6306559;22;20278;-86
2022/03/28 10:17:25;;;;;;;19.05;15.48;;;28.10;3.50;;;;;;6306409;22;20179;-87
2022/03/28 10:19:53;;;;;;;18.65;16.65;;;28.80;3.50;;;;;;6306504;22;20282;-87
2022/03/28 10:22:26;;;;;;;18.70;15.55;;;29.00;1.30;;;;;;6306406;22;20163;-84
2022/03/28 10:24:54;;;;;;;22.30;16.13;;;29.60;2.10;;;;;;6304954;22;20195;-86
2022/03/28 10:27:24;;;;;;;24.13;17.10;;;29.00;2.70;;;;;;6307220;22;20192;-85
2022/03/28 10:29:52;;;;;;;20.33;16.85;;;27.80;3.00;;;;;;6306121;22;20209;-86
2022/03/28 10:32:20;;;;;;;19.65;17.65;;;26.30;4.90;;;;;;6305896;22;20714;-85
2022/03/28 10:34:52;;;;;;;18.27;16.15;;;26.00;5.20;;;;;;6305809;22;20203;-84
2022/03/28 10:37:27;;;;;;;23.08;17.10;;;25.90;5.00;;;;;;6308470;22;20189;-84
2022/03/28 10:40:21;;;;;;;21.35;17.33;;;26.60;5.30;;;;;;6308278;22;20206;-85
2022/03/28 10:42:56;;;;;;;18.05;16.10;;;26.10;4.60;;;;;;6308158;22;20160;-85
2022/03/28 10:45:32;;;;;;;19.92;15.77;;;26.00;4.50;;;;;;6307476;22;20195;-85
2022/03/28 10:48:00;;;;;;;18.98;16.08;;;26.90;5.20;;;;;;6309079;22;20293;-84
2022/03/28 10:50:29;;;;;;;21.23;16.67;;;26.90;4.10;;;;;;6316023;22;20203;-85
2022/03/28 10:53:12;;;;;;;20.98;16.02;;;26.30;4.80;;;;;;6314727;22;20175;-84
2022/03/28 10:55:44;;;;;;;17.85;15.75;;;26.10;4.70;;;;;;6308117;22;20708;-84
2022/03/28 10:58:24;;;;;;;20.45;15.95;;;25.90;5.10;;;;;;6308714;22;20152;-85
2022/03/28 11:01:17;;;;;;;17.88;16.02;;;26.00;5.10;;;;;;6307958;22;20175;-84
2022/03/28 11:03:52;;;;;;;19.35;15.80;;;25.80;5.80;;;;;;6307104;22;20584;-85
2022/03/28 11:06:21;;;;;;;16.95;15.15;;;25.30;6.10;;;;;;6305447;22;20224;-85
2022/03/28 11:09:02;;;;;;;16.92;14.85;;;26.00;4.60;;;;;;6305327;22;20577;-86
2022/03/28 11:11:33;;;;;;;21.83;15.95;;;26.60;3.90;;;;;;6307318;22;20697;-83
2022/03/28 11:14:04;;;;;;;17.65;14.65;;;25.60;4.80;;;;;;6306517;22;20585;-83
2022/03/28 11:16:50;;;;;;;24.17;15.23;;;25.00;6.50;;;;;;6306434;22;20159;-85
2022/03/28 11:19:22;;;;;;;17.73;14.20;;;24.40;6.40;;;;;;6313688;22;20195;-85
2022/03/28 11:24:47;;;;;;;21.55;14.93;;;22.50;8.50;;;;;;6272281;22;20204;-90
2022/03/28 11:27:27;;;;;;;17.63;14.25;;;22.20;9.40;;;;;;6292687;22;20198;-91
2022/03/28 11:37:29;;;;;;;19.10;13.43;;;21.90;9.00;;;;;;6201446;23;20186;-92
2022/03/28 11:39:59;;;;;;;15.90;13.63;;;22.00;9.60;;;;;;6197830;23;20259;-88
2022/03/28 11:42:49;;;;;;;18.08;13.65;;;22.10;9.70;;;;;;6307351;22;20180;-88
2022/03/28 11:45:22;;;;;;;25.45;15.57;;;22.00;9.60;;;;;;6321790;22;20553;-89
2022/03/28 11:47:54;;;;;;;17.25;14.90;;;22.00;10.70;;;;;;6294442;22;20187;-87
2022/03/28 11:50:26;;;;;;;21.25;14.77;;;21.50;8.80;;;;;;6279976;22;20695;-88
2022/03/28 11:52:56;;;;;;;20.35;14.07;;;21.50;9.70;;;;;;6322692;22;20183;-87
2022/03/28 11:55:31;;;;;;;19.90;14.15;;;21.10;9.50;;;;;;6320579;22;20291;-91
2022/03/28 11:58:31;;;;;;;17.98;14.68;;;21.10;9.30;;;;;;6324167;22;20543;-88
2022/03/28 12:18:01;;;;;;;19.83;15.07;;;20.60;10.00;;;;;;6196140;23;20593;-87
2022/03/28 12:20:31;;;;;;;19.50;14.30;;;20.70;9.80;;;;;;6198311;23;20221;-88
2022/03/28 12:23:06;;;;;;;19.75;13.90;;;20.80;9.40;;;;;;6178536;23;20322;-87
2022/03/28 15:33:10;;;;;;;18.67;11.65;;;19.20;5.50;;;;;;6035871;23;20255;-89
2022/03/28 16:03:12;;;;;;;16.20;11.15;;;18.70;7.20;;;;;;6081453;23;20189;-88
2022/03/28 16:36:46;;;;;;;13.80;10.43;;;17.80;8.20;;;;;;5925684;24;20192;-87
2022/03/28 18:41:54;;;;;;;26.95;11.00;;;13.00;16.90;;;;;;6042200;23;20170;-87
2022/03/28 18:47:11;;;;;;;19.13;11.00;;;12.90;17.40;;;;;;6103925;23;20176;-89
2022/03/28 18:52:50;;;;;;;17.40;11.88;;;12.80;17.40;;;;;;6161288;23;20203;-90
2022/03/28 19:17:41;;;;;;;19.83;13.40;;;12.40;18.40;;;;;;4975381;27;4670075;-90
2022/03/28 19:20:11;;;;;;;20.85;12.32;;;12.30;18.60;;;;;;5081237;28;20224;-90
2022/03/28 19:22:39;;;;;;;19.80;12.73;;;12.20;18.90;;;;;;5074281;28;20209;-91
2022/03/28 19:25:08;;;;;;;22.60;11.68;;;12.10;19.10;;;;;;5094679;28;20221;-91
2022/03/28 19:27:36;;;;;;;19.38;11.68;;;12.10;19.60;;;;;;5077398;28;20217;-90
2022/03/28 19:30:15;;;;;;;17.58;11.98;;;12.00;20.20;;;;;;5091614;28;20255;-90
2022/03/28 19:32:43;;;;;;;22.95;12.00;;;12.00;19.80;;;;;;5090276;28;20232;-90
2022/03/28 19:35:11;;;;;;;20.00;11.90;;;11.90;19.70;;;;;;5086088;28;20217;-89
2022/03/28 19:37:39;;;;;;;19.45;12.93;;;11.90;19.30;;;;;;5092666;28;20201;-90
2022/03/28 19:40:07;;;;;;;21.58;14.90;;;11.90;18.90;;;;;;5079181;28;20600;-89
2022/03/28 19:42:35;;;;;;;20.42;12.95;;;11.90;19.50;;;;;;5093585;28;20275;-87
2022/03/28 19:45:02;;;;;;;20.63;12.77;;;11.90;20.00;;;;;;5084176;28;20224;-88
2022/03/28 19:47:31;;;;;;;21.60;12.60;;;11.90;20.20;;;;;;5067556;28;20644;-88
2022/03/28 19:50:01;;;;;;;22.13;13.30;;;11.80;20.00;;;;;;5061269;28;20288;-88
2022/03/28 19:52:28;;;;;;;20.90;12.63;;;11.80;20.30;;;;;;5084389;28;20198;-88
2022/03/28 19:54:55;;;;;;;18.25;11.85;;;11.70;20.00;;;;;;5082285;28;20241;-88
2022/03/28 19:57:23;;;;;;;17.17;11.75;;;11.60;20.00;;;;;;5085920;28;20293;-88
2022/03/28 19:59:50;;;;;;;15.70;10.98;;;11.50;20.00;;;;;;5084861;28;20297;-87
2022/03/28 20:02:18;;;;;;;14.65;9.75;;;11.40;20.30;;;;;;5069105;28;20621;-88
2022/03/28 20:04:45;;;;;;;18.33;10.15;;;11.30;20.90;;;;;;5092105;28;20331;-87
2022/03/28 20:07:16;;;;;;;16.60;9.93;;;11.20;20.60;;;;;;5088355;28;20229;-87
2022/03/28 20:09:52;;;;;;;13.55;9.52;;;11.10;21.00;;;;;;5081597;28;20604;-88
2022/03/28 20:12:19;;;;;;;15.18;10.07;;;11.10;21.20;;;;;;5076296;28;20201;-87
2022/03/28 20:14:46;;;;;;;14.25;9.73;;;11.00;21.00;;;;;;5071314;28;20232;-87
2022/03/28 20:17:13;;;;;;;20.38;11.40;;;10.90;20.90;;;;;;5080519;28;20581;-86
2022/03/28 20:19:40;;;;;;;16.02;11.30;;;10.90;20.60;;;;;;5082789;28;20247;-86
2022/03/28 20:22:08;;;;;;;20.92;11.07;;;10.80;20.80;;;;;;5078207;28;20238;-87
2022/03/28 20:24:36;;;;;;;13.65;10.20;;;10.80;21.10;;;;;;5062584;28;20229;-89
2022/03/28 20:27:04;;;;;;;16.60;11.00;;;10.70;21.60;;;;;;5081627;28;20289;-88
2022/03/28 20:29:31;;;;;;;18.70;10.85;;;10.70;21.60;;;;;;5064279;28;20218;-88
2022/03/28 20:32:00;;;;;;;14.98;10.73;;;10.70;21.60;;;;;;5050498;28;20201;-87
2022/03/28 20:34:27;;;;;;;15.38;10.35;;;10.70;21.20;;;;;;5068080;28;20247;-88
2022/03/28 20:36:54;;;;;;;19.27;11.00;;;10.70;22.40;;;;;;5073847;28;20256;-87
2022/03/28 20:39:21;;;;;;;21.70;11.18;;;10.70;22.80;;;;;;5066100;28;20230;-88
2022/03/28 20:41:50;;;;;;;20.13;13.27;;;10.70;22.20;;;;;;5067781;28;20205;-87
2022/03/28 20:44:17;;;;;;;16.30;11.13;;;10.60;22.40;;;;;;5070095;28;20221;-87
2022/03/28 20:46:45;;;;;;;18.27;10.27;;;10.60;21.90;;;;;;5065159;28;20268;-88
2022/03/28 20:49:15;;;;;;;17.60;12.05;;;10.50;22.20;;;;;;5070308;28;20217;-88
2022/03/28 20:51:43;;;;;;;17.60;11.65;;;10.50;22.30;;;;;;5065128;28;20675;-88
2022/03/28 20:54:11;;;;;;;19.02;11.38;;;10.50;22.20;;;;;;5068740;28;20317;-88
2022/03/28 20:56:44;;;;;;;19.15;11.45;;;10.50;22.40;;;;;;5068415;28;20221;-88
2022/03/28 20:59:16;;;;;;;22.40;13.77;;;10.50;22.20;;;;;;5062153;28;20220;-87
2022/03/28 21:01:45;;;;;;;21.92;14.80;;;10.50;22.10;;;;;;5073986;28;20204;-87
2022/03/28 21:04:13;;;;;;;23.52;17.08;;;10.40;22.60;;;;;;5069923;28;20309;-88
2022/03/28 21:06:43;;;;;;;22.48;12.45;;;10.40;22.70;;;;;;5066256;28;20202;-87
2022/03/28 21:09:11;;;;;;;14.95;9.65;;;10.30;23.80;;;;;;5064055;28;20225;-88
2022/03/28 21:11:39;;;;;;;17.17;10.20;;;10.30;23.90;;;;;;5066838;28;20198;-87
2022/03/28 21:14:06;;;;;;;16.05;10.02;;;10.30;23.90;;;;;;5066787;28;20224;-87
2022/03/28 21:16:35;;;;;;;17.50;10.90;;;10.20;23.20;;;;;;5046846;28;20218;-89
2022/03/28 21:19:02;;;;;;;16.13;9.38;;;10.20;23.00;;;;;;5074047;28;20224;-87
2022/03/28 21:21:29;;;;;;;16.05;8.95;;;10.20;23.80;;;;;;5063564;28;20272;-88
2022/03/28 21:23:56;;;;;;;14.25;9.13;;;10.10;23.70;;;;;;5068017;28;20228;-88
2022/03/28 21:26:23;;;;;;;18.30;10.32;;;10.10;23.50;;;;;;5065971;28;20237;-88
2022/03/28 21:28:51;;;;;;;13.48;8.93;;;10.10;23.70;;;;;;5051022;28;20955;-87
2022/03/28 21:31:18;;;;;;;19.88;9.77;;;10.10;23.70;;;;;;5069671;28;20194;-88
2022/03/28 21:33:47;;;;;;;13.00;9.02;;;10.00;23.60;;;;;;5058075;28;20233;-88
2022/03/28 21:36:21;;;;;;;12.85;8.77;;;10.00;23.60;;;;;;5066033;28;20248;-88
2022/03/28 21:38:48;;;;;;;14.73;9.63;;;9.90;25.00;;;;;;5065000;28;20260;-87
2022/03/28 21:41:16;;;;;;;12.77;9.05;;;9.80;24.90;;;;;;5066853;28;20190;-90
2022/03/28 21:43:43;;;;;;;12.75;8.75;;;9.80;24.90;;;;;;5061507;28;20228;-88
2022/03/28 21:46:13;;;;;;;12.52;8.80;;;9.70;24.80;;;;;;5043073;28;20256;-88
2022/03/28 21:48:39;;;;;;;14.93;8.60;;;9.70;24.90;;;;;;5065536;28;20224;-88
2022/03/28 21:51:09;;;;;;;12.70;8.40;;;9.70;24.80;;;;;;5067054;28;20193;-88
2022/03/28 21:53:36;;;;;;;14.02;9.43;;;9.70;24.80;;;;;;5031966;28;20210;-87
2022/03/28 21:56:04;;;;;;;14.77;8.90;;;9.70;24.80;;;;;;5046756;28;20189;-88
2022/03/28 21:58:31;;;;;;;17.80;9.15;;;9.70;24.80;;;;;;5043632;28;20301;-88
2022/03/28 22:00:58;;;;;;;12.88;8.52;;;9.60;24.80;;;;;;5048710;28;20269;-87
2022/03/28 22:03:26;;;;;;;11.95;8.65;;;9.50;24.70;;;;;;5051052;28;20213;-88
2022/03/28 22:05:55;;;;;;;16.30;8.90;;;9.50;24.70;;;;;;5052846;28;20214;-87
2022/03/28 22:08:27;;;;;;;17.02;9.82;;;9.40;24.60;;;;;;5061668;28;20292;-90
2022/03/28 22:10:55;;;;;;;12.60;8.52;;;9.40;24.60;;;;;;5061801;28;20225;-88
2022/03/28 22:13:22;;;;;;;13.18;8.45;;;9.40;24.60;;;;;;5064427;28;20200;-87
2022/03/28 22:15:50;;;;;;;15.20;8.40;;;9.40;24.60;;;;;;5060508;28;20308;-88
2022/03/28 22:21:20;;;;;;;15.70;9.23;;;9.30;25.40;;;;;;5075667;28;20213;-87
2022/03/28 22:23:49;;;;;;;13.32;8.48;;;9.30;26.00;;;;;;5075718;28;20232;-87
2022/03/28 22:26:16;;;;;;;12.73;8.73;;;9.20;26.00;;;;;;5059767;28;20220;-87
2022/03/28 22:28:44;;;;;;;15.02;8.60;;;9.20;26.90;;;;;;5078205;28;20234;-87
2022/03/28 22:31:11;;;;;;;15.10;9.35;;;9.20;27.60;;;;;;5064387;28;20765;-86
2022/03/28 22:33:40;;;;;;;14.65;8.48;;;9.20;27.90;;;;;;5068099;28;20205;-87
2022/03/28 22:36:09;;;;;;;15.13;9.40;;;9.20;28.00;;;;;;5071773;28;20197;-86
2022/03/28 22:38:38;;;;;;;16.77;9.27;;;9.20;28.00;;;;;;5060215;28;20197;-86
2022/03/28 22:41:11;;;;;;;13.70;9.32;;;9.20;29.30;;;;;;5077040;28;20304;-86
2022/03/28 22:43:38;;;;;;;15.57;9.48;;;9.20;28.20;;;;;;5074151;28;20213;-87
2022/03/28 22:46:06;;;;;;;12.43;8.30;;;9.20;28.70;;;;;;5079054;28;20205;-87
2022/03/28 22:48:35;;;;;;;15.25;9.65;;;9.10;29.30;;;;;;5067285;28;20197;-87
2022/03/28 22:51:02;;;;;;;14.93;9.00;;;9.10;28.70;;;;;;5070918;28;20201;-87
2022/03/28 22:53:30;;;;;;;13.15;9.40;;;9.10;28.10;;;;;;5056599;28;20208;-87
2022/03/28 22:56:08;;;;;;;14.70;10.05;;;9.10;29.60;;;;;;5077052;28;20747;-87
2022/03/28 22:58:37;;;;;;;17.13;9.90;;;9.10;29.00;;;;;;5055565;28;20198;-86
2022/03/28 23:01:12;;;;;;;14.43;10.07;;;9.00;29.60;;;;;;5078819;28;20267;-87
2022/03/28 23:04:00;;;;;;;15.73;9.63;;;9.10;29.50;;;;;;5076996;28;20221;-86
2022/03/28 23:09:26;;;;;;;13.57;9.73;;;9.10;28.90;;;;;;5080992;28;20231;-88
2022/03/28 23:12:09;;;;;;;15.85;9.98;;;9.10;29.50;;;;;;5066090;28;20193;-86
2022/03/28 23:14:38;;;;;;;15.25;9.77;;;9.10;29.00;;;;;;5065839;28;20233;-87
2022/03/28 23:17:06;;;;;;;14.25;9.38;;;9.20;29.00;;;;;;5048981;28;20225;-87
2022/03/28 23:19:33;;;;;;;16.35;9.63;;;9.10;29.40;;;;;;5074131;28;20252;-87
2022/03/28 23:22:00;;;;;;;15.07;9.43;;;9.20;29.60;;;;;;5078046;28;20193;-87
2022/03/28 23:24:27;;;;;;;14.88;10.05;;;9.20;29.60;;;;;;5066638;28;20217;-88
2022/03/28 23:26:55;;;;;;;15.80;9.60;;;9.10;29.20;;;;;;5074773;28;20622;-87
2022/03/28 23:29:22;;;;;;;15.40;9.60;;;9.10;29.60;;;;;;5072392;28;20288;-88
2022/03/28 23:31:54;;;;;;;12.68;9.50;;;9.10;29.30;;;;;;5072062;28;20261;-86
2022/03/28 23:34:22;;;;;;;12.70;9.25;;;9.20;28.80;;;;;;5071058;28;20257;-87